Airport ICAO


00:47 UTC

-1°C

Clear skies


An affordable passengers' Moving Map for your aircraft. Made for the iPad and the iPhone
More information here

LFOB Tille


Beauvais FRANCE   VFR CAVOK


METAR LFOB 230030Z AUTO 03009KT CAVOK M01/M04 Q1018 NOSIG 0h17min

TAF LFOB 222300Z 2300/2324 05010KT CAVOK PROB30 TEMPO 2304/2309 4000 BR 1h47min





NOTAMS

OPEN